Time;durP1;ratioP1;P1;durP2;ratioP2;P2;SDS_P1;SDS_P2;PMS_P1;PMS_P2;Temp;Humidity;BMP_temperature;BMP_pressure;BME280_temperature;BME280_humidity;BME280_pressure;Samples;Min_cycle;Max_cycle;Signal;HPM_P1;HPM_P2
2022/11/26 08:34:07;;;;;;;11.53;1.67;;;8.20;99.90;;;;;;4878212;29;20234;-74
2022/11/26 08:36:33;;;;;;;8.90;2.20;;;8.20;99.90;;;;;;4874505;29;20552;-74
2022/11/26 08:39:01;;;;;;;5.60;1.33;;;8.30;99.90;;;;;;4878914;29;20710;-74
2022/11/26 08:41:28;;;;;;;8.27;1.40;;;8.30;99.90;;;;;;4879582;29;20219;-73
2022/11/26 08:43:55;;;;;;;6.13;1.13;;;8.40;99.90;;;;;;4878415;29;20238;-75
2022/11/26 08:46:22;;;;;;;6.10;1.30;;;8.40;99.90;;;;;;4879490;29;20274;-73
2022/11/26 08:48:49;;;;;;;7.17;1.20;;;8.40;99.90;;;;;;4897521;29;20245;-74
2022/11/26 08:51:17;;;;;;;10.97;1.57;;;8.50;99.90;;;;;;4897454;29;20215;-74
2022/11/26 08:53:44;;;;;;;12.00;1.73;;;8.40;99.90;;;;;;4898355;29;20207;-74
2022/11/26 08:56:12;;;;;;;6.57;1.70;;;8.50;99.90;;;;;;4883250;29;20663;-74
2022/11/26 08:58:41;;;;;;;8.47;1.70;;;8.50;99.90;;;;;;4878295;29;20231;-81
2022/11/26 09:01:09;;;;;;;11.07;1.77;;;8.50;99.90;;;;;;4879045;29;20207;-79
2022/11/26 09:03:37;;;;;;;6.07;1.63;;;8.60;99.90;;;;;;4878637;29;20364;-73
2022/11/26 09:06:04;;;;;;;9.30;2.20;;;8.60;99.90;;;;;;4877860;29;20218;-74
2022/11/26 09:08:43;;;;;;;7.40;1.33;;;8.80;99.90;;;;;;4878962;29;20322;-72
2022/11/26 09:11:11;;;;;;;8.97;1.73;;;8.90;99.90;;;;;;4880294;29;20628;-73
2022/11/26 09:13:38;;;;;;;4.70;1.50;;;9.00;99.90;;;;;;4883587;29;20670;-75
2022/11/26 09:16:05;;;;;;;8.97;1.20;;;9.10;99.90;;;;;;4878804;29;20211;-75
2022/11/26 09:18:32;;;;;;;11.43;0.83;;;9.10;99.90;;;;;;4878871;29;20235;-81
2022/11/26 09:21:03;;;;;;;2.47;1.20;;;9.20;99.90;;;;;;4878171;29;20215;-82
2022/11/26 09:23:30;;;;;;;7.70;1.13;;;9.30;99.90;;;;;;4878415;29;20239;-82
2022/11/26 09:25:58;;;;;;;9.93;1.53;;;9.40;99.90;;;;;;4875011;29;20246;-73
2022/11/26 09:28:25;;;;;;;6.90;1.73;;;9.50;99.90;;;;;;4877176;29;20219;-82
2022/11/26 09:30:57;;;;;;;4.17;1.10;;;9.50;99.90;;;;;;4877982;29;20206;-74
2022/11/26 09:33:24;;;;;;;7.20;1.30;;;9.50;99.90;;;;;;4877912;29;20227;-72
2022/11/26 09:35:50;;;;;;;11.10;1.43;;;9.60;99.90;;;;;;4873460;29;20567;-75
2022/11/26 09:38:17;;;;;;;6.33;1.10;;;9.60;99.90;;;;;;4896100;29;20218;-76
2022/11/26 09:40:49;;;;;;;9.27;1.00;;;9.60;99.90;;;;;;4896865;29;20214;-72
2022/11/26 09:43:26;;;;;;;5.63;0.97;;;9.60;99.90;;;;;;4887988;29;20235;-77
2022/11/26 09:45:58;;;;;;;6.33;1.03;;;9.70;99.90;;;;;;4873705;29;20221;-73
2022/11/26 09:48:27;;;;;;;6.47;1.20;;;9.80;99.90;;;;;;4878219;29;20214;-73
2022/11/26 09:51:03;;;;;;;12.13;1.27;;;9.80;99.90;;;;;;4878855;29;20215;-73
2022/11/26 09:53:35;;;;;;;5.80;1.27;;;9.80;99.90;;;;;;4878710;29;20303;-75
2022/11/26 20:00:28;;;;;;;7.67;2.23;;;7.90;99.90;;;;;;3163565;23;20243;-74
2022/11/26 20:02:54;;;;;;;5.57;2.60;;;7.90;99.90;;;;;;4880492;29;20249;-73
2022/11/26 20:05:21;;;;;;;5.87;2.23;;;7.90;99.90;;;;;;4881070;29;20234;-73
2022/11/26 20:07:48;;;;;;;6.90;2.30;;;7.80;99.90;;;;;;4880939;29;20718;-73
2022/11/26 20:10:15;;;;;;;3.93;2.50;;;7.80;99.90;;;;;;4881127;29;20211;-72
2022/11/26 20:12:42;;;;;;;5.13;1.97;;;7.90;99.90;;;;;;4881040;29;20222;-74
2022/11/26 20:15:10;;;;;;;8.03;3.03;;;7.90;99.90;;;;;;4881054;29;20213;-73
2022/11/26 20:17:38;;;;;;;7.00;2.20;;;7.90;99.90;;;;;;4880842;29;20231;-73
2022/11/26 20:20:06;;;;;;;5.80;2.07;;;7.90;99.90;;;;;;4880604;29;20242;-73
2022/11/26 20:22:35;;;;;;;12.37;2.77;;;8.00;99.90;;;;;;4880737;29;20294;-73
2022/11/26 20:25:02;;;;;;;6.73;2.67;;;7.90;99.90;;;;;;4880608;29;20299;-73
2022/11/26 20:27:29;;;;;;;5.97;1.93;;;8.00;99.90;;;;;;4880916;29;20233;-73
2022/11/26 20:29:56;;;;;;;4.23;2.20;;;8.00;99.90;;;;;;4880618;29;20305;-73
2022/11/26 20:32:23;;;;;;;5.43;1.77;;;8.00;99.90;;;;;;4880323;29;20563;-72
2022/11/26 20:34:51;;;;;;;7.30;2.10;;;8.10;99.90;;;;;;4880472;29;20420;-73
2022/11/26 20:37:18;;;;;;;7.47;1.77;;;7.90;99.90;;;;;;4873930;29;20227;-74
2022/11/26 20:39:44;;;;;;;5.27;2.17;;;8.00;99.90;;;;;;4868283;29;20211;-73
2022/11/26 20:42:14;;;;;;;3.50;1.57;;;8.00;99.90;;;;;;4868589;29;20548;-74
2022/11/26 20:44:40;;;;;;;5.00;1.80;;;7.90;99.90;;;;;;4869342;29;20246;-73
2022/11/26 20:47:07;;;;;;;7.10;2.00;;;8.00;99.90;;;;;;4863630;29;20242;-73
2022/11/26 20:49:36;;;;;;;4.17;1.60;;;8.00;99.90;;;;;;4878759;29;20218;-74
2022/11/26 20:52:05;;;;;;;4.60;1.80;;;8.00;99.90;;;;;;4868576;29;20231;-73
2022/11/26 20:54:32;;;;;;;4.80;2.03;;;8.10;99.90;;;;;;4873402;29;20674;-73
2022/11/26 20:56:59;;;;;;;3.70;1.60;;;8.00;99.90;;;;;;4876818;29;20208;-75
2022/11/26 20:59:26;;;;;;;4.80;2.10;;;8.00;99.90;;;;;;4875871;29;20207;-73
2022/11/26 21:01:53;;;;;;;3.53;1.70;;;8.00;99.90;;;;;;4875304;29;20215;-74
2022/11/26 21:04:19;;;;;;;6.67;2.13;;;8.10;99.90;;;;;;4873212;29;20239;-75
2022/11/26 21:06:46;;;;;;;6.30;1.83;;;8.10;99.90;;;;;;4879449;29;20213;-73
2022/11/26 21:09:16;;;;;;;6.27;2.10;;;8.10;99.90;;;;;;4873588;29;20263;-74
2022/11/26 21:11:43;;;;;;;6.30;1.67;;;8.10;99.90;;;;;;4878710;29;20212;-74
2022/11/26 21:14:10;;;;;;;3.53;1.47;;;8.10;99.90;;;;;;4871931;29;20212;-74
2022/11/26 21:16:37;;;;;;;4.60;1.60;;;8.10;99.90;;;;;;4873054;29;20643;-74
2022/11/26 21:19:04;;;;;;;2.77;1.33;;;8.20;99.90;;;;;;4868817;29;20311;-73
2022/11/26 21:21:31;;;;;;;5.30;1.43;;;8.10;99.90;;;;;;4873334;29;20211;-72
2022/11/26 21:23:58;;;;;;;5.97;1.83;;;8.10;99.90;;;;;;4872483;29;20693;-74
2022/11/26 21:26:27;;;;;;;6.50;2.50;;;8.10;99.90;;;;;;4874520;29;20240;-73
2022/11/26 21:28:55;;;;;;;10.47;3.10;;;8.20;99.90;;;;;;4872314;29;20238;-74
2022/11/26 21:31:23;;;;;;;60.63;16.90;;;8.10;99.90;;;;;;4872435;29;20216;-73
2022/11/26 21:33:54;;;;;;;14.13;4.53;;;8.10;99.90;;;;;;4866611;29;20208;-72
2022/11/26 21:36:21;;;;;;;30.70;9.00;;;8.10;99.90;;;;;;4871978;29;20215;-73
2022/11/26 21:38:49;;;;;;;40.53;9.33;;;8.00;99.90;;;;;;4871581;29;20318;-75
2022/11/26 21:41:18;;;;;;;64.40;16.93;;;8.00;99.90;;;;;;4873475;29;20689;-74
2022/11/26 21:43:47;;;;;;;49.70;13.87;;;8.10;99.90;;;;;;4861898;29;20243;-73
2022/11/26 21:46:16;;;;;;;22.53;7.40;;;8.10;99.90;;;;;;4876784;29;20611;-77
2022/11/26 21:48:43;;;;;;;13.87;4.73;;;7.90;99.90;;;;;;4870091;29;20293;-73
2022/11/26 21:51:12;;;;;;;24.40;8.30;;;8.00;99.90;;;;;;4875063;29;20208;-74
2022/11/26 21:53:39;;;;;;;9.17;2.53;;;8.00;99.90;;;;;;4866590;29;20219;-73
2022/11/26 21:56:07;;;;;;;10.87;2.87;;;8.10;99.90;;;;;;4875525;29;20207;-74
2022/11/26 21:58:35;;;;;;;5.43;2.83;;;8.00;99.90;;;;;;4862695;29;20232;-74
2022/11/26 22:01:09;;;;;;;6.53;2.27;;;7.90;99.90;;;;;;4874887;29;20215;-74
2022/11/26 22:03:36;;;;;;;5.60;1.90;;;7.90;99.90;;;;;;4871937;29;20678;-73
2022/11/26 22:06:03;;;;;;;3.57;1.70;;;7.90;99.90;;;;;;4864958;29;20322;-73
2022/11/26 22:08:30;;;;;;;10.13;3.07;;;7.90;99.90;;;;;;4873760;29;20231;-74
2022/11/26 22:10:57;;;;;;;6.33;2.27;;;7.90;99.90;;;;;;4878654;29;20222;-74
2022/11/26 22:13:24;;;;;;;4.83;2.07;;;7.90;99.90;;;;;;4878373;29;20217;-73
2022/11/26 22:15:51;;;;;;;20.93;7.47;;;7.80;99.90;;;;;;4878707;29;20207;-72
2022/11/26 22:18:19;;;;;;;12.77;3.67;;;7.80;99.90;;;;;;4878747;29;20227;-72
2022/11/26 22:20:50;;;;;;;15.50;5.57;;;7.80;99.90;;;;;;4878443;29;20651;-74
2022/11/26 22:23:17;;;;;;;6.70;3.10;;;7.70;99.90;;;;;;4880932;29;20218;-73
2022/11/26 22:25:44;;;;;;;5.20;2.77;;;7.60;99.90;;;;;;4881736;29;20235;-74
2022/11/26 22:28:11;;;;;;;11.43;2.83;;;7.60;99.90;;;;;;4881738;29;20227;-74
